Time;durP1;ratioP1;P1;durP2;ratioP2;P2;SDS_P1;SDS_P2;PMS_P1;PMS_P2;Temp;Humidity;BMP_temperature;BMP_pressure;BME280_temperature;BME280_humidity;BME280_pressure;Samples;Min_cycle;Max_cycle;Signal;HPM_P1;HPM_P2
2022/05/25 00:00:03;;;;;;;;;;;;;;;8.37;56.11;95217.75;5005188;28;20000;-69
2022/05/25 00:02:29;;;;;;;;;;;;;;;8.08;50.71;95224.50;5005579;28;20054;-69
2022/05/25 00:04:54;;;;;;;;;;;;;;;8.03;52.29;95222.41;4993360;28;19990;-70
2022/05/25 00:07:19;;;;;;;;;;;;;;;7.96;51.76;95224.06;5005143;28;20356;-70
2022/05/25 00:09:45;;;;;;;;;;;;;;;7.97;52.83;95221.25;5005102;28;20502;-67
2022/05/25 00:12:10;;;;;;;;;;;;;;;7.99;51.72;95215.78;5004659;28;20536;-69
2022/05/25 00:14:36;;;;;;;;;;;;;;;8.04;52.21;95219.56;5005315;28;20368;-67
2022/05/25 00:17:01;;;;;;;;;;;;;;;8.02;51.19;95226.03;5001477;28;20342;-69
2022/05/25 00:22:11;;;;;;;;;;;;;;;8.09;53.48;95234.94;5004660;28;19999;-71
2022/05/25 00:24:36;;;;;;;;;;;;;;;8.12;51.88;95236.41;5004709;28;19992;-69
2022/05/25 00:27:01;;;;;;;;;;;;;;;8.04;51.01;95242.59;5002392;28;20281;-70
2022/05/25 00:29:27;;;;;;;;;;;;;;;7.99;52.26;95243.09;5004131;28;20497;-71
2022/05/25 00:31:52;;;;;;;;;;;;;;;8.10;56.36;95244.56;5004765;28;20469;-68
2022/05/25 00:34:18;;;;;;;;;;;;;;;7.91;50.44;95243.13;5004827;28;20048;-69
2022/05/25 00:36:43;;;;;;;;;;;;;;;7.81;50.73;95245.13;5002679;28;19998;-70
2022/05/25 00:39:08;;;;;;;;;;;;;;;7.77;50.46;95244.66;4985803;28;20509;-72
2022/05/25 00:41:34;;;;;;;;;;;;;;;7.82;53.88;95241.50;5003057;28;20021;-67
2022/05/25 00:43:59;;;;;;;;;;;;;;;7.85;52.55;95246.47;4999712;28;20085;-68
2022/05/25 00:46:24;;;;;;;;;;;;;;;7.80;51.99;95244.31;5002033;28;19970;-70
2022/05/25 00:49:00;;;;;;;;;;;;;;;7.75;50.81;95246.63;4997380;28;20419;-69
2022/05/25 00:51:27;;;;;;;;;;;;;;;7.73;51.79;95238.84;5016524;28;20028;-68
2022/05/25 00:54:02;;;;;;;;;;;;;;;7.78;52.55;95244.50;4997788;28;19969;-71
2022/05/25 00:56:29;;;;;;;;;;;;;;;7.70;53.25;95243.66;5000785;28;20311;-67
2022/05/25 00:58:58;;;;;;;;;;;;;;;7.66;54.07;95240.53;4998004;28;20017;-71
2022/05/25 01:01:24;;;;;;;;;;;;;;;7.58;50.87;95245.84;4999657;28;19990;-68
2022/05/25 01:03:49;;;;;;;;;;;;;;;7.64;56.27;95255.75;4997347;28;20072;-70
2022/05/25 01:06:18;;;;;;;;;;;;;;;7.59;53.89;95245.66;4997997;28;19973;-70
2022/05/25 01:09:02;;;;;;;;;;;;;;;7.57;54.48;95250.28;5001346;28;20000;-72
2022/05/25 01:11:30;;;;;;;;;;;;;;;7.45;51.83;95249.00;4996928;28;19993;-67
2022/05/25 01:14:14;;;;;;;;;;;;;;;7.41;51.51;95251.13;5003736;28;20024;-69
2022/05/25 01:16:42;;;;;;;;;;;;;;;7.42;51.74;95252.81;4999510;28;20029;-72
2022/05/25 01:19:26;;;;;;;;;;;;;;;7.45;51.57;95241.84;5010817;28;20555;-69
2022/05/25 01:21:56;;;;;;;;;;;;;;;7.49;53.28;95252.97;4991938;28;20008;-69
2022/05/25 01:24:27;;;;;;;;;;;;;;;7.51;53.99;95257.09;5003677;28;20001;-67
2022/05/25 01:26:55;;;;;;;;;;;;;;;7.44;51.23;95258.75;5003771;28;20024;-70
2022/05/25 01:29:39;;;;;;;;;;;;;;;7.48;52.78;95261.91;5003534;28;20005;-71
2022/05/25 01:32:14;;;;;;;;;;;;;;;7.59;55.45;95263.38;5003377;28;20458;-71
2022/05/25 01:34:44;;;;;;;;;;;;;;;7.44;50.35;95257.94;5004356;28;20285;-69
2022/05/25 01:37:35;;;;;;;;;;;;;;;7.41;49.85;95265.22;4998100;28;20030;-70
2022/05/25 01:40:07;;;;;;;;;;;;;;;7.36;50.63;95266.72;4994410;28;20052;-67
2022/05/25 01:42:53;;;;;;;;;;;;;;;7.43;52.30;95270.34;5002975;28;19970;-70
2022/05/25 01:45:18;;;;;;;;;;;;;;;7.40;50.94;95268.03;5003529;28;19986;-69
2022/05/25 01:47:43;;;;;;;;;;;;;;;7.38;51.20;95267.38;5001602;28;20030;-71
2022/05/25 01:50:09;;;;;;;;;;;;;;;7.38;52.43;95272.69;5004000;28;19966;-68
2022/05/25 01:52:37;;;;;;;;;;;;;;;7.37;51.02;95266.53;5003256;28;19989;-70
2022/05/25 01:55:04;;;;;;;;;;;;;;;7.39;52.51;95266.38;5001247;28;20598;-69
2022/05/25 01:57:29;;;;;;;;;;;;;;;7.36;50.92;95264.91;5003516;28;20497;-69
2022/05/25 01:59:54;;;;;;;;;;;;;;;7.30;49.41;95262.91;5004033;28;19990;-70
2022/05/25 02:05:05;;;;;;;;;;;;;;;7.19;51.89;95266.72;4999410;28;20047;-69
2022/05/25 02:07:39;;;;;;;;;;;;;;;7.15;50.25;95268.03;4999959;28;19970;-69
2022/05/25 02:10:07;;;;;;;;;;;;;;;7.08;50.58;95267.03;5002565;28;20615;-70
2022/05/25 02:12:53;;;;;;;;;;;;;;;7.05;51.62;95262.91;5001165;28;20123;-69
2022/05/25 02:15:28;;;;;;;;;;;;;;;6.96;51.27;95261.22;5001172;28;19977;-69
2022/05/25 02:17:59;;;;;;;;;;;;;;;6.90;51.06;95265.34;5000927;28;20064;-66
2022/05/25 02:20:24;;;;;;;;;;;;;;;6.77;49.67;95261.38;5000969;28;20012;-69
2022/05/25 02:22:49;;;;;;;;;;;;;;;6.88;54.70;95265.50;5002007;28;19993;-68
2022/05/25 02:25:17;;;;;;;;;;;;;;;6.77;49.92;95261.38;4991209;28;20188;-69
2022/05/25 02:27:45;;;;;;;;;;;;;;;6.71;51.69;95267.31;4999618;28;19994;-70
2022/05/25 02:30:13;;;;;;;;;;;;;;;6.63;50.86;95262.84;4996068;28;19970;-71
2022/05/25 02:32:44;;;;;;;;;;;;;;;6.61;51.34;95270.13;4991025;28;20004;-67
2022/05/25 02:35:09;;;;;;;;;;;;;;;6.61;51.52;95275.41;5001044;28;20327;-69
2022/05/25 02:37:34;;;;;;;;;;;;;;;6.53;50.04;95271.91;5000598;28;20043;-69
2022/05/25 02:40:00;;;;;;;;;;;;;;;6.47;50.82;95271.50;4997862;28;20020;-70
2022/05/25 02:42:25;;;;;;;;;;;;;;;6.48;52.37;95275.88;5001038;28;19975;-71
2022/05/25 02:44:50;;;;;;;;;;;;;;;6.49;51.37;95280.16;5002268;28;20077;-70
2022/05/25 02:47:15;;;;;;;;;;;;;;;6.39;50.16;95276.78;5000645;28;20423;-70
2022/05/25 02:49:41;;;;;;;;;;;;;;;6.37;50.63;95276.94;4998909;28;19989;-69
2022/05/25 02:52:08;;;;;;;;;;;;;;;6.33;50.98;95272.13;5000560;28;20029;-70
2022/05/25 02:54:33;;;;;;;;;;;;;;;6.28;50.46;95272.59;4997930;28;20401;-70
2022/05/25 02:56:58;;;;;;;;;;;;;;;6.26;50.68;95271.97;4994800;28;20074;-71
2022/05/25 02:59:23;;;;;;;;;;;;;;;6.19;49.79;95277.03;4999958;28;19985;-69
2022/05/25 03:01:48;;;;;;;;;;;;;;;6.20;51.59;95273.41;5002402;28;20100;-68
2022/05/25 03:04:14;;;;;;;;;;;;;;;6.20;51.85;95277.88;5001854;28;19990;-70
2022/05/25 03:06:39;;;;;;;;;;;;;;;6.12;50.04;95281.28;4997392;28;20088;-71
2022/05/25 03:09:04;;;;;;;;;;;;;;;6.09;50.37;95289.56;5002361;28;20409;-70
2022/05/25 03:11:30;;;;;;;;;;;;;;;6.10;51.04;95281.47;5000717;28;20309;-66
2022/05/25 03:13:55;;;;;;;;;;;;;;;6.04;50.44;95278.59;5002663;28;19970;-67
2022/05/25 03:16:21;;;;;;;;;;;;;;;6.04;50.32;95281.25;4992949;28;20348;-68
2022/05/25 03:18:47;;;;;;;;;;;;;;;6.02;50.54;95281.41;5002484;28;19961;-71
2022/05/25 03:21:12;;;;;;;;;;;;;;;6.08;52.24;95286.06;4991408;28;20240;-69
2022/05/25 03:23:38;;;;;;;;;;;;;;;5.97;50.15;95296.91;4999622;28;19990;-70
2022/05/25 03:26:03;;;;;;;;;;;;;;;5.98;50.36;95295.91;4998230;28;20163;-68
2022/05/25 03:28:28;;;;;;;;;;;;;;;5.91;49.78;95302.84;5001660;28;20127;-71
2022/05/25 03:30:54;;;;;;;;;;;;;;;5.91;50.36;95302.84;5002260;28;20332;-72
2022/05/25 03:33:19;;;;;;;;;;;;;;;6.05;53.17;95314.66;5002211;28;20280;-70
2022/05/25 03:35:44;;;;;;;;;;;;;;;6.10;52.13;95307.06;5001203;28;20551;-71
2022/05/25 03:38:10;;;;;;;;;;;;;;;6.15;51.42;95314.53;4992872;28;20058;-69
2022/05/25 03:40:35;;;;;;;;;;;;;;;6.21;52.61;95309.44;4994752;28;20035;-70
2022/05/25 03:43:01;;;;;;;;;;;;;;;6.23;51.42;95307.44;5001502;28;19969;-70
2022/05/25 03:45:26;;;;;;;;;;;;;;;6.25;50.13;95304.66;5001938;28;20109;-69
2022/05/25 03:47:52;;;;;;;;;;;;;;;6.25;50.30;95310.78;4989550;28;19997;-72
2022/05/25 03:50:20;;;;;;;;;;;;;;;6.29;51.70;95310.47;4990822;28;20146;-72
2022/05/25 03:52:46;;;;;;;;;;;;;;;6.25;49.17;95309.94;5001437;28;20658;-72
2022/05/25 03:55:11;;;;;;;;;;;;;;;6.20;49.11;95313.06;5001930;28;20200;-72
2022/05/25 03:57:36;;;;;;;;;;;;;;;6.18;48.91;95312.38;5001476;28;20450;-71
2022/05/25 04:00:03;;;;;;;;;;;;;;;6.18;48.37;95307.09;5001662;28;20381;-66
2022/05/25 04:02:28;;;;;;;;;;;;;;;6.17;48.45;95320.47;5002850;28;20182;-69
2022/05/25 04:05:07;;;;;;;;;;;;;;;6.32;52.27;95326.00;5001511;28;19998;-70
2022/05/25 04:07:50;;;;;;;;;;;;;;;6.42;52.54;95326.69;5003963;28;20338;-69
2022/05/25 04:10:17;;;;;;;;;;;;;;;6.62;53.13;95331.78;4993691;28;20377;-71
2022/05/25 04:12:42;;;;;;;;;;;;;;;6.69;52.19;95324.00;4991873;28;20126;-71
2022/05/25 04:15:08;;;;;;;;;;;;;;;6.77;51.97;95327.50;5000777;28;19975;-69
2022/05/25 04:17:34;;;;;;;;;;;;;;;6.86;51.43;95338.13;4998309;28;20093;-68
2022/05/25 04:19:59;;;;;;;;;;;;;;;6.96;51.72;95341.47;5004718;28;19994;-71
2022/05/25 04:22:24;;;;;;;;;;;;;;;6.93;49.44;95341.78;5005023;28;19997;-71
2022/05/25 04:24:50;;;;;;;;;;;;;;;6.93;51.04;95351.56;5001075;28;20389;-71
2022/05/25 04:27:15;;;;;;;;;;;;;;;7.00;51.25;95345.44;4995715;28;20463;-71
2022/05/25 04:29:40;;;;;;;;;;;;;;;7.14;51.29;95340.50;5001483;28;20309;-72
2022/05/25 04:32:08;;;;;;;;;;;;;;;7.21;51.06;95341.50;5004512;28;19989;-71
2022/05/25 04:34:34;;;;;;;;;;;;;;;7.40;52.35;95336.88;5002311;28;19980;-71
2022/05/25 04:37:48;;;;;;;;;;;;;;;7.51;51.44;95343.66;4995922;28;20088;-72
2022/05/25 04:39:44;;;;;;;;;;;;;;;7.58;51.12;95347.31;5000831;28;20370;-72
2022/05/25 04:42:09;;;;;;;;;;;;;;;7.78;53.75;95347.84;4995975;28;19973;-72
2022/05/25 04:44:35;;;;;;;;;;;;;;;8.01;53.63;95343.66;5004072;28;19993;-70
2022/05/25 04:47:00;;;;;;;;;;;;;;;8.27;53.37;95350.59;5005019;28;20016;-71
2022/05/25 04:49:26;;;;;;;;;;;;;;;8.34;52.23;95350.72;5003821;28;20004;-69
2022/05/25 04:51:51;;;;;;;;;;;;;;;8.55;53.21;95352.81;4992947;28;19994;-70
2022/05/25 04:54:17;;;;;;;;;;;;;;;8.42;50.53;95359.50;5004352;28;20000;-70
2022/05/25 04:59:25;;;;;;;;;;;;;;;8.69;50.81;95369.84;5004241;28;19980;-68
2022/05/25 05:01:51;;;;;;;;;;;;;;;8.85;52.38;95373.44;5004099;28;20037;-70
2022/05/25 05:04:16;;;;;;;;;;;;;;;9.13;50.85;95367.66;5003843;28;20084;-71
2022/05/25 05:06:44;;;;;;;;;;;;;;;9.22;51.30;95363.97;5004336;28;19982;-72
2022/05/25 05:09:09;;;;;;;;;;;;;;;9.23;50.12;95360.31;5003847;28;20004;-68
2022/05/25 05:11:36;;;;;;;;;;;;;;;9.26;49.88;95367.94;5000672;28;21974;-71
2022/05/25 05:14:02;;;;;;;;;;;;;;;9.37;49.90;95376.47;4995531;28;19978;-70
2022/05/25 05:16:27;;;;;;;;;;;;;;;9.55;51.94;95381.50;4992100;28;20004;-71
2022/05/25 05:18:52;;;;;;;;;;;;;;;9.57;49.78;95384.81;5003184;28;20520;-72
2022/05/25 05:21:18;;;;;;;;;;;;;;;9.71;49.04;95381.41;5002989;28;20064;-68
2022/05/25 05:23:43;;;;;;;;;;;;;;;9.28;49.75;95402.28;5003351;28;19990;-72
2022/05/25 05:26:08;;;;;;;;;;;;;;;9.79;49.39;95393.78;5003418;28;20600;-72
2022/05/25 05:28:34;;;;;;;;;;;;;;;9.93;49.17;95391.38;5002506;28;20084;-68
2022/05/25 05:31:00;;;;;;;;;;;;;;;9.70;48.67;95390.38;5002463;28;19974;-68
2022/05/25 05:33:25;;;;;;;;;;;;;;;10.09;48.93;95390.41;4997173;28;19994;-68
2022/05/25 05:35:55;;;;;;;;;;;;;;;10.04;49.71;95395.41;4998539;28;20076;-68
2022/05/25 05:38:20;;;;;;;;;;;;;;;10.12;48.79;95394.53;4999127;28;20419;-70
2022/05/25 05:40:45;;;;;;;;;;;;;;;10.47;48.11;95392.19;5002102;28;19999;-71
2022/05/25 05:43:12;;;;;;;;;;;;;;;10.44;48.19;95397.91;5003389;28;19972;-69
2022/05/25 05:45:38;;;;;;;;;;;;;;;10.35;48.62;95398.00;5000419;28;19998;-72
2022/05/25 05:48:06;;;;;;;;;;;;;;;10.26;49.27;95398.25;4998916;28;20479;-73
2022/05/25 05:50:32;;;;;;;;;;;;;;;10.07;49.58;95411.88;5002677;28;20478;-68
2022/05/25 05:52:58;;;;;;;;;;;;;;;10.12;49.19;95419.31;4993617;28;19998;-67
2022/05/25 05:55:23;;;;;;;;;;;;;;;10.01;49.11;95420.56;4998229;28;20075;-71
2022/05/25 05:57:49;;;;;;;;;;;;;;;9.08;51.46;95422.13;4999583;28;19962;-65
2022/05/25 06:00:15;;;;;;;;;;;;;;;9.11;51.50;95423.63;4998323;28;20154;-66
2022/05/25 06:02:40;;;;;;;;;;;;;;;9.11;52.17;95425.47;5001123;28;19977;-70
2022/05/25 06:05:06;;;;;;;;;;;;;;;8.95;52.66;95424.53;5001754;28;19987;-68
2022/05/25 06:07:31;;;;;;;;;;;;;;;8.60;53.25;95429.25;5001861;28;20006;-69
2022/05/25 06:09:56;;;;;;;;;;;;;;;8.98;52.97;95433.97;5002890;28;20000;-76
2022/05/25 06:12:22;;;;;;;;;;;;;;;9.11;52.67;95431.56;4990303;28;20127;-68
2022/05/25 06:14:47;;;;;;;;;;;;;;;8.95;51.91;95438.63;4998141;28;20052;-70
2022/05/25 06:19:56;;;;;;;;;;;;;;;8.19;54.31;95457.50;4995622;28;20537;-69
2022/05/25 06:22:22;;;;;;;;;;;;;;;7.91;54.90;95447.22;4993204;28;19998;-69
2022/05/25 06:24:51;;;;;;;;;;;;;;;7.98;54.24;95444.75;4997660;28;20554;-71
2022/05/25 06:27:16;;;;;;;;;;;;;;;8.46;54.68;95444.88;4999095;28;20458;-68
2022/05/25 06:29:47;;;;;;;;;;;;;;;8.28;55.29;95445.91;4990912;28;20212;-67
2022/05/25 06:32:12;;;;;;;;;;;;;;;8.73;53.84;95455.25;4994509;28;20049;-70
2022/05/25 06:34:38;;;;;;;;;;;;;;;8.79;53.57;95458.06;5000177;28;19992;-70
2022/05/25 06:37:03;;;;;;;;;;;;;;;8.48;52.37;95450.84;4994781;28;20006;-69
2022/05/25 06:39:29;;;;;;;;;;;;;;;8.74;52.06;95457.72;4991142;28;19973;-67
2022/05/25 06:41:54;;;;;;;;;;;;;;;8.71;54.05;95460.75;4991891;28;20028;-73
2022/05/25 06:44:20;;;;;;;;;;;;;;;8.76;52.90;95455.75;4999697;28;20056;-67
2022/05/25 06:46:45;;;;;;;;;;;;;;;9.00;51.22;95466.47;4994255;28;20032;-69
2022/05/25 06:49:10;;;;;;;;;;;;;;;8.82;53.32;95459.56;4992917;28;20447;-69
2022/05/25 06:51:35;;;;;;;;;;;;;;;9.12;52.80;95458.97;4992624;28;20013;-70
2022/05/25 06:54:01;;;;;;;;;;;;;;;9.55;51.79;95470.03;4997207;28;19985;-67
2022/05/25 06:56:26;;;;;;;;;;;;;;;10.18;49.80;95466.50;4999743;28;20348;-69
2022/05/25 06:58:52;;;;;;;;;;;;;;;10.62;48.07;95464.91;4997772;28;20028;-67
2022/05/25 07:01:17;;;;;;;;;;;;;;;10.53;47.22;95466.00;4993706;28;19988;-71
2022/05/25 07:03:43;;;;;;;;;;;;;;;10.68;47.41;95481.19;4996534;28;20424;-70
2022/05/25 07:06:09;;;;;;;;;;;;;;;10.62;48.46;95470.22;5000218;28;19973;-68
2022/05/25 07:08:34;;;;;;;;;;;;;;;10.98;46.14;95479.34;4996795;28;20428;-69
2022/05/25 07:11:00;;;;;;;;;;;;;;;11.07;47.87;95481.91;4993409;28;20415;-69
2022/05/25 07:13:26;;;;;;;;;;;;;;;11.36;46.35;95482.94;4992750;28;19994;-71
2022/05/25 07:15:54;;;;;;;;;;;;;;;11.12;45.91;95487.56;4991188;28;20084;-68
2022/05/25 07:18:20;;;;;;;;;;;;;;;10.59;47.68;95494.56;4998917;28;20370;-70
2022/05/25 07:20:45;;;;;;;;;;;;;;;10.99;45.41;95490.84;4998551;28;20001;-70
2022/05/25 07:23:10;;;;;;;;;;;;;;;9.80;48.42;95507.09;4998239;28;20000;-71
2022/05/25 07:25:35;;;;;;;;;;;;;;;10.31;47.81;95496.97;4994192;28;19989;-72
2022/05/25 07:28:01;;;;;;;;;;;;;;;9.98;47.53;95501.53;4997258;28;20378;-70
2022/05/25 07:30:28;;;;;;;;;;;;;;;10.80;48.55;95493.03;4984729;28;20037;-68
2022/05/25 07:32:53;;;;;;;;;;;;;;;11.21;48.17;95496.25;4997267;28;20040;-70
2022/05/25 07:35:18;;;;;;;;;;;;;;;10.73;46.40;95492.09;4998283;28;20065;-71
2022/05/25 07:37:45;;;;;;;;;;;;;;;9.42;48.47;95499.03;4993839;28;19978;-68
2022/05/25 07:40:15;;;;;;;;;;;;;;;9.36;48.88;95508.53;4996047;28;20499;-71
2022/05/25 07:42:41;;;;;;;;;;;;;;;9.54;49.32;95508.25;4999964;28;20237;-71
2022/05/25 07:45:07;;;;;;;;;;;;;;;9.44;49.80;95499.66;4991616;28;20188;-69
2022/05/25 07:47:32;;;;;;;;;;;;;;;9.33;49.70;95509.69;5000891;28;19994;-69
2022/05/25 07:49:57;;;;;;;;;;;;;;;9.66;48.88;95518.50;4995899;28;20036;-70
2022/05/25 07:52:23;;;;;;;;;;;;;;;9.91;48.92;95519.19;5001534;28;19997;-70
2022/05/25 07:54:48;;;;;;;;;;;;;;;10.20;47.98;95508.88;4999350;28;20068;-69
2022/05/25 07:57:14;;;;;;;;;;;;;;;10.83;48.12;95513.97;5001737;28;20120;-68
2022/05/25 07:59:39;;;;;;;;;;;;;;;9.95;47.65;95519.66;4999757;28;19993;-68
2022/05/25 08:07:34;;;;;;;;;;;;;;;10.53;45.50;95505.09;5001363;28;19977;-67
2022/05/25 08:10:09;;;;;;;;;;;;;;;9.93;44.57;95503.06;5006854;28;20104;-63
2022/05/25 08:12:34;;;;;;;;;;;;;;;10.91;42.74;95505.06;4999306;28;19989;-66
2022/05/25 08:15:00;;;;;;;;;;;;;;;11.44;43.26;95498.81;4988066;28;19978;-64
2022/05/25 08:17:26;;;;;;;;;;;;;;;11.64;42.09;95496.41;4997073;28;20496;-63
2022/05/25 08:19:51;;;;;;;;;;;;;;;11.54;37.66;95503.88;5003013;28;19989;-61
2022/05/25 08:22:16;;;;;;;;;;;;;;;10.83;40.75;95498.00;5006749;28;20605;-67
2022/05/25 08:24:43;;;;;;;;;;;;;;;11.10;41.12;95502.88;4998468;28;20089;-60
2022/05/25 08:27:08;;;;;;;;;;;;;;;10.86;41.07;95505.63;5001721;28;20133;-62
2022/05/25 08:29:33;;;;;;;;;;;;;;;11.39;39.60;95509.19;5004350;28;20462;-60
2022/05/25 08:31:59;;;;;;;;;;;;;;;10.15;39.20;95509.41;5003985;28;19997;-60
2022/05/25 08:34:25;;;;;;;;;;;;;;;10.59;39.75;95515.88;5009025;28;19977;-60
2022/05/25 08:36:50;;;;;;;;;;;;;;;11.00;37.07;95503.13;5002536;28;20443;-60
2022/05/25 08:39:15;;;;;;;;;;;;;;;9.31;41.62;95532.09;4998062;28;19970;-60
2022/05/25 08:41:41;;;;;;;;;;;;;;;10.52;41.83;95514.09;4999659;28;20268;-60
2022/05/25 08:44:07;;;;;;;;;;;;;;;10.01;40.30;95521.63;4995180;28;19993;-62
2022/05/25 08:46:32;;;;;;;;;;;;;;;10.13;39.56;95518.56;5001149;28;20502;-61
2022/05/25 08:49:02;;;;;;;;;;;;;;;10.22;40.99;95514.84;5002879;28;20162;-61
2022/05/25 08:51:27;;;;;;;;;;;;;;;10.13;41.33;95523.91;5001661;28;19966;-60
2022/05/25 08:53:53;;;;;;;;;;;;;;;9.81;39.81;95524.72;5002471;28;20435;-61
2022/05/25 08:56:50;;;;;;;;;;;;;;;10.10;41.46;95525.88;5006770;28;20549;-60
2022/05/25 08:59:18;;;;;;;;;;;;;;;10.03;40.40;95516.94;4978329;28;20031;-60
2022/05/25 09:01:45;;;;;;;;;;;;;;;10.64;42.61;95517.97;5000440;28;20202;-61
2022/05/25 09:04:21;;;;;;;;;;;;;;;10.89;39.28;95509.75;5002596;28;19994;-61
2022/05/25 09:07:02;;;;;;;;;;;;;;;10.56;39.68;95515.38;5004383;28;20673;-61
2022/05/25 09:09:38;;;;;;;;;;;;;;;9.42;42.13;95522.94;5008633;28;20568;-61
2022/05/25 09:12:06;;;;;;;;;;;;;;;9.80;40.64;95519.59;5001413;28;20070;-61
2022/05/25 09:14:37;;;;;;;;;;;;;;;9.93;42.01;95519.00;4990708;28;19981;-61
2022/05/25 09:17:04;;;;;;;;;;;;;;;10.84;40.24;95520.94;5002698;28;19990;-60
2022/05/25 09:19:34;;;;;;;;;;;;;;;10.85;39.42;95533.25;5002826;28;20383;-60
2022/05/25 09:22:10;;;;;;;;;;;;;;;11.18;38.01;95528.63;5007321;28;19997;-60
2022/05/25 09:24:35;;;;;;;;;;;;;;;11.03;37.68;95518.75;5003063;28;19989;-59
2022/05/25 09:27:00;;;;;;;;;;;;;;;11.47;35.49;95538.44;5004052;28;19989;-59
2022/05/25 09:29:26;;;;;;;;;;;;;;;11.72;36.05;95526.63;5001493;28;20130;-60
2022/05/25 09:32:10;;;;;;;;;;;;;;;11.94;35.65;95522.16;5006456;28;20436;-59
2022/05/25 09:34:39;;;;;;;;;;;;;;;10.55;37.64;95538.53;4993181;28;19980;-59
2022/05/25 09:37:25;;;;;;;;;;;;;;;12.11;36.97;95529.94;4995398;28;19993;-60
2022/05/25 09:39:51;;;;;;;;;;;;;;;12.78;36.65;95525.19;5005064;28;19992;-60
2022/05/25 09:42:17;;;;;;;;;;;;;;;13.10;35.43;95529.31;5002555;28;20051;-59
2022/05/25 09:44:46;;;;;;;;;;;;;;;13.11;34.90;95530.97;5002717;28;19984;-59
2022/05/25 09:47:16;;;;;;;;;;;;;;;12.11;36.17;95541.44;4999782;28;20042;-60
2022/05/25 09:49:44;;;;;;;;;;;;;;;12.62;36.32;95531.63;5003473;28;20452;-60
2022/05/25 09:52:19;;;;;;;;;;;;;;;12.83;36.10;95535.28;5000828;28;19991;-61
2022/05/25 09:54:51;;;;;;;;;;;;;;;12.76;37.51;95534.41;5002609;28;19977;-62
2022/05/25 09:57:22;;;;;;;;;;;;;;;12.88;34.94;95530.19;5002063;28;19988;-62
2022/05/25 09:59:56;;;;;;;;;;;;;;;12.93;34.46;95538.44;5001972;28;20001;-62
2022/05/25 10:02:35;;;;;;;;;;;;;;;12.02;35.52;95532.72;4996363;28;19968;-66
2022/05/25 10:05:10;;;;;;;;;;;;;;;12.49;34.85;95536.88;4996096;28;19997;-62
2022/05/25 10:07:36;;;;;;;;;;;;;;;12.26;37.78;95527.22;4996929;28;20092;-62
2022/05/25 10:10:05;;;;;;;;;;;;;;;13.10;35.32;95522.13;5010363;28;20347;-62
2022/05/25 10:12:32;;;;;;;;;;;;;;;12.11;34.32;95546.75;4996736;28;20024;-62
2022/05/25 10:14:58;;;;;;;;;;;;;;;12.20;35.48;95544.81;5003133;28;20005;-62
2022/05/25 10:17:30;;;;;;;;;;;;;;;10.92;37.91;95529.88;5002386;28;19993;-63
2022/05/25 10:19:56;;;;;;;;;;;;;;;12.31;36.96;95535.50;5002661;28;19996;-63
2022/05/25 10:22:46;;;;;;;;;;;;;;;11.92;34.39;95532.19;5002436;28;19992;-62
2022/05/25 10:25:41;;;;;;;;;;;;;;;11.61;36.44;95534.09;5003532;28;19999;-62
2022/05/25 10:28:25;;;;;;;;;;;;;;;12.17;35.70;95531.03;4989098;28;19993;-62
2022/05/25 10:36:46;;;;;;;;;;;;;;;13.09;33.64;95530.34;5007205;28;19994;-62
2022/05/25 10:39:17;;;;;;;;;;;;;;;14.04;33.36;95527.06;4991338;28;19969;-62
2022/05/25 10:41:44;;;;;;;;;;;;;;;14.42;32.29;95533.72;5000328;28;20021;-63
2022/05/25 10:44:16;;;;;;;;;;;;;;;14.87;32.74;95520.75;5000288;28;20328;-62
2022/05/25 10:46:45;;;;;;;;;;;;;;;14.09;32.39;95539.84;5000208;28;20039;-62
2022/05/25 10:49:15;;;;;;;;;;;;;;;13.61;31.87;95532.66;5004240;28;19994;-62
2022/05/25 10:51:42;;;;;;;;;;;;;;;13.95;32.72;95523.75;5010054;28;20022;-63
2022/05/25 10:57:22;;;;;;;;;;;;;;;13.49;32.48;95540.44;5001307;28;20014;-62
2022/05/25 11:00:05;;;;;;;;;;;;;;;13.42;33.87;95529.69;4990943;28;19990;-63
2022/05/25 11:02:57;;;;;;;;;;;;;;;13.82;34.43;95537.06;5009071;28;20018;-63
2022/05/25 11:05:34;;;;;;;;;;;;;;;14.53;30.93;95545.69;4968374;28;20069;-63
2022/05/25 11:08:19;;;;;;;;;;;;;;;14.11;33.67;95540.47;5002602;28;20351;-63
2022/05/25 11:10:46;;;;;;;;;;;;;;;14.45;30.98;95538.66;5003016;28;20441;-63
2022/05/25 11:13:15;;;;;;;;;;;;;;;14.46;32.33;95536.81;4999698;28;20343;-63
2022/05/25 11:15:59;;;;;;;;;;;;;;;13.57;30.90;95553.66;5002263;28;19984;-63
2022/05/25 11:18:30;;;;;;;;;;;;;;;13.99;30.47;95542.09;5001066;28;19975;-69
2022/05/25 11:21:16;;;;;;;;;;;;;;;13.53;29.13;95547.03;5001586;28;20500;-70
2022/05/25 11:23:46;;;;;;;;;;;;;;;13.83;28.44;95536.03;4998167;28;20011;-73
2022/05/25 11:26:30;;;;;;;;;;;;;;;14.46;28.60;95532.28;5007777;28;20017;-81
2022/05/25 11:29:10;;;;;;;;;;;;;;;14.56;28.34;95523.03;5004806;28;20037;-80
2022/05/25 11:31:43;;;;;;;;;;;;;;;14.95;30.40;95536.63;5004345;28;20040;-79
2022/05/25 11:34:08;;;;;;;;;;;;;;;15.19;28.03;95527.09;5007657;28;19963;-81
2022/05/25 11:36:37;;;;;;;;;;;;;;;15.16;27.52;95527.53;5001201;28;20393;-81
2022/05/25 11:39:14;;;;;;;;;;;;;;;14.12;30.03;95534.09;5002697;28;19981;-80
2022/05/25 11:41:42;;;;;;;;;;;;;;;14.72;29.61;95527.97;5003433;28;20209;-80
2022/05/25 11:44:11;;;;;;;;;;;;;;;14.92;28.85;95532.50;5001401;28;20422;-81
2022/05/25 11:46:45;;;;;;;;;;;;;;;15.10;27.32;95523.81;5003661;28;19965;-78
2022/05/25 11:49:20;;;;;;;;;;;;;;;15.13;26.98;95514.53;5006850;28;20442;-79
2022/05/25 11:51:50;;;;;;;;;;;;;;;15.54;27.38;95517.09;5004993;28;19992;-79
2022/05/25 11:54:26;;;;;;;;;;;;;;;15.93;27.44;95526.06;5001665;28;20348;-80
2022/05/25 11:56:51;;;;;;;;;;;;;;;16.65;27.17;95532.22;5010564;28;20468;-79
2022/05/25 11:59:36;;;;;;;;;;;;;;;16.15;27.46;95533.78;5016196;28;19960;-78
2022/05/25 12:02:18;;;;;;;;;;;;;;;16.21;26.34;95542.81;4991758;28;19971;-79
2022/05/25 12:04:57;;;;;;;;;;;;;;;14.51;28.86;95531.66;5001207;28;20441;-78
2022/05/25 12:07:26;;;;;;;;;;;;;;;15.58;28.02;95550.56;5006489;28;19990;-79
2022/05/25 12:09:54;;;;;;;;;;;;;;;16.56;26.98;95525.47;4998042;28;20027;-82
2022/05/25 12:12:28;;;;;;;;;;;;;;;16.76;25.49;95534.19;5003599;28;20429;-78
2022/05/25 12:15:09;;;;;;;;;;;;;;;15.51;25.46;95531.78;5001614;28;20393;-79
2022/05/25 12:17:37;;;;;;;;;;;;;;;15.92;28.04;95527.09;5005525;28;19980;-78
2022/05/25 12:20:03;;;;;;;;;;;;;;;16.06;25.65;95535.91;5004987;28;19988;-79
2022/05/25 12:22:32;;;;;;;;;;;;;;;15.23;27.45;95536.38;5005809;28;19990;-78
2022/05/25 12:24:58;;;;;;;;;;;;;;;16.26;26.46;95538.44;5016220;28;19983;-78
2022/05/25 12:27:25;;;;;;;;;;;;;;;15.00;27.00;95560.13;4991025;28;19959;-79
2022/05/25 12:29:51;;;;;;;;;;;;;;;14.67;27.07;95537.66;4995253;28;19986;-77
2022/05/25 12:32:17;;;;;;;;;;;;;;;14.60;27.77;95545.69;5006068;28;20491;-77
2022/05/25 12:34:52;;;;;;;;;;;;;;;14.13;27.86;95546.44;4989357;28;19972;-77
2022/05/25 12:37:26;;;;;;;;;;;;;;;14.31;28.10;95537.03;5004665;28;20022;-78
2022/05/25 12:39:51;;;;;;;;;;;;;;;14.23;29.84;95539.88;5004383;28;20044;-76
2022/05/25 12:42:22;;;;;;;;;;;;;;;14.75;29.89;95523.25;5005191;28;19976;-77
2022/05/25 12:50:33;;;;;;;;;;;;;;;14.93;29.23;95547.56;5004780;28;20528;-77
2022/05/25 12:52:59;;;;;;;;;;;;;;;15.07;27.79;95534.16;5004738;28;20428;-77
2022/05/25 12:55:29;;;;;;;;;;;;;;;15.86;27.13;95526.09;5003006;28;19967;-76
2022/05/25 12:57:55;;;;;;;;;;;;;;;15.04;28.56;95534.56;5005453;28;20363;-77
2022/05/25 13:00:21;;;;;;;;;;;;;;;14.50;27.79;95531.88;5003086;28;20015;-76
2022/05/25 13:02:46;;;;;;;;;;;;;;;15.54;27.65;95534.00;5004758;28;19974;-77
2022/05/25 13:05:31;;;;;;;;;;;;;;;14.46;26.48;95526.91;5004583;28;19989;-77
2022/05/25 13:07:57;;;;;;;;;;;;;;;14.37;27.95;95533.50;5004411;28;19978;-77
2022/05/25 13:10:31;;;;;;;;;;;;;;;14.69;27.77;95541.75;5003360;28;20470;-77
2022/05/25 13:12:56;;;;;;;;;;;;;;;16.00;26.55;95534.91;5004267;28;19985;-77
2022/05/25 13:15:22;;;;;;;;;;;;;;;15.52;27.46;95533.41;5002683;28;19997;-77
2022/05/25 13:17:48;;;;;;;;;;;;;;;15.40;26.55;95525.19;5004622;28;19967;-77
2022/05/25 13:20:54;;;;;;;;;;;;;;;15.88;26.77;95531.25;5002540;28;20447;-78
2022/05/25 13:23:38;;;;;;;;;;;;;;;16.33;26.37;95534.91;5004019;28;20072;-78
2022/05/25 13:26:03;;;;;;;;;;;;;;;16.67;25.04;95514.03;5004275;28;19963;-79
2022/05/25 13:28:51;;;;;;;;;;;;;;;16.10;26.21;95515.63;5002596;28;19988;-77
2022/05/25 13:31:19;;;;;;;;;;;;;;;16.45;25.74;95533.19;5002692;28;19955;-78